sensor_id;sensor_type;location;lat;lon;timestamp;P1;durP1;ratioP1;P2;durP2;ratioP2
41897;SDS011;27576;53.366;-1.498;2024-03-08T00:00:10;33.90;;;21.20;;
41897;SDS011;27576;53.366;-1.498;2024-03-08T00:02:39;39.53;;;23.63;;
41897;SDS011;27576;53.366;-1.498;2024-03-08T00:05:05;38.72;;;22.73;;
41897;SDS011;27576;53.366;-1.498;2024-03-08T00:07:33;39.45;;;23.08;;
41897;SDS011;27576;53.366;-1.498;2024-03-08T00:09:59;32.20;;;21.52;;
41897;SDS011;27576;53.366;-1.498;2024-03-08T00:12:24;34.28;;;22.95;;
41897;SDS011;27576;53.366;-1.498;2024-03-08T00:14:52;32.80;;;22.13;;
41897;SDS011;27576;53.366;-1.498;2024-03-08T00:17:19;34.90;;;22.60;;
41897;SDS011;27576;53.366;-1.498;2024-03-08T00:19:46;38.03;;;23.58;;
41897;SDS011;27576;53.366;-1.498;2024-03-08T00:22:12;38.17;;;24.25;;
41897;SDS011;27576;53.366;-1.498;2024-03-08T00:24:37;32.55;;;22.13;;
41897;SDS011;27576;53.366;-1.498;2024-03-08T00:27:02;38.10;;;25.17;;
41897;SDS011;27576;53.366;-1.498;2024-03-08T00:29:29;39.63;;;23.65;;
41897;SDS011;27576;53.366;-1.498;2024-03-08T00:31:55;35.10;;;23.48;;
41897;SDS011;27576;53.366;-1.498;2024-03-08T00:34:20;36.83;;;24.35;;
41897;SDS011;27576;53.366;-1.498;2024-03-08T00:36:45;39.92;;;25.55;;
41897;SDS011;27576;53.366;-1.498;2024-03-08T00:39:11;37.60;;;25.15;;
41897;SDS011;27576;53.366;-1.498;2024-03-08T00:41:37;40.88;;;26.38;;
41897;SDS011;27576;53.366;-1.498;2024-03-08T00:44:02;36.17;;;24.73;;
41897;SDS011;27576;53.366;-1.498;2024-03-08T00:46:29;40.70;;;25.77;;
41897;SDS011;27576;53.366;-1.498;2024-03-08T00:48:56;43.25;;;27.13;;
41897;SDS011;27576;53.366;-1.498;2024-03-08T00:51:21;42.38;;;27.17;;
41897;SDS011;27576;53.366;-1.498;2024-03-08T00:53:47;45.47;;;27.65;;
41897;SDS011;27576;53.366;-1.498;2024-03-08T00:56:12;44.30;;;27.60;;
41897;SDS011;27576;53.366;-1.498;2024-03-08T00:58:38;40.92;;;25.42;;
41897;SDS011;27576;53.366;-1.498;2024-03-08T01:01:03;41.28;;;25.80;;
41897;SDS011;27576;53.366;-1.498;2024-03-08T01:03:30;43.53;;;25.33;;
41897;SDS011;27576;53.366;-1.498;2024-03-08T01:05:56;45.13;;;26.80;;
41897;SDS011;27576;53.366;-1.498;2024-03-08T01:08:22;40.08;;;25.60;;
41897;SDS011;27576;53.366;-1.498;2024-03-08T01:10:48;47.83;;;29.48;;
41897;SDS011;27576;53.366;-1.498;2024-03-08T01:13:15;45.47;;;27.85;;
41897;SDS011;27576;53.366;-1.498;2024-03-08T01:15:41;48.28;;;29.85;;
41897;SDS011;27576;53.366;-1.498;2024-03-08T01:18:06;49.55;;;30.60;;
41897;SDS011;27576;53.366;-1.498;2024-03-08T01:20:32;52.10;;;31.13;;
41897;SDS011;27576;53.366;-1.498;2024-03-08T01:22:57;44.38;;;29.05;;
41897;SDS011;27576;53.366;-1.498;2024-03-08T01:25:22;47.63;;;29.50;;
41897;SDS011;27576;53.366;-1.498;2024-03-08T01:27:48;50.30;;;31.48;;
41897;SDS011;27576;53.366;-1.498;2024-03-08T01:30:13;52.85;;;31.02;;
41897;SDS011;27576;53.366;-1.498;2024-03-08T01:32:42;44.15;;;28.63;;
41897;SDS011;27576;53.366;-1.498;2024-03-08T01:35:09;53.70;;;32.42;;
41897;SDS011;27576;53.366;-1.498;2024-03-08T01:37:34;53.55;;;30.45;;
41897;SDS011;27576;53.366;-1.498;2024-03-08T01:40:00;54.90;;;32.30;;
41897;SDS011;27576;53.366;-1.498;2024-03-08T01:42:25;50.35;;;31.27;;
41897;SDS011;27576;53.366;-1.498;2024-03-08T01:44:51;49.55;;;30.58;;
41897;SDS011;27576;53.366;-1.498;2024-03-08T01:47:16;52.17;;;31.80;;
41897;SDS011;27576;53.366;-1.498;2024-03-08T01:49:43;57.20;;;33.20;;
41897;SDS011;27576;53.366;-1.498;2024-03-08T01:52:09;58.88;;;33.30;;
41897;SDS011;27576;53.366;-1.498;2024-03-08T01:54:36;53.95;;;34.15;;
41897;SDS011;27576;53.366;-1.498;2024-03-08T01:57:02;51.15;;;30.80;;
41897;SDS011;27576;53.366;-1.498;2024-03-08T01:59:27;57.17;;;32.58;;
41897;SDS011;27576;53.366;-1.498;2024-03-08T02:01:56;50.67;;;30.73;;
41897;SDS011;27576;53.366;-1.498;2024-03-08T02:04:26;53.38;;;32.95;;
41897;SDS011;27576;53.366;-1.498;2024-03-08T02:06:52;54.80;;;32.25;;
41897;SDS011;27576;53.366;-1.498;2024-03-08T02:09:17;53.60;;;31.30;;
41897;SDS011;27576;53.366;-1.498;2024-03-08T02:11:43;55.45;;;33.58;;
41897;SDS011;27576;53.366;-1.498;2024-03-08T02:14:08;53.28;;;32.10;;
41897;SDS011;27576;53.366;-1.498;2024-03-08T02:16:34;53.70;;;32.65;;
41897;SDS011;27576;53.366;-1.498;2024-03-08T02:18:59;55.38;;;31.27;;
41897;SDS011;27576;53.366;-1.498;2024-03-08T02:21:25;55.60;;;33.20;;
41897;SDS011;27576;53.366;-1.498;2024-03-08T02:23:51;54.67;;;32.22;;
41897;SDS011;27576;53.366;-1.498;2024-03-08T02:26:17;51.53;;;31.40;;
41897;SDS011;27576;53.366;-1.498;2024-03-08T02:28:43;49.17;;;29.80;;
41897;SDS011;27576;53.366;-1.498;2024-03-08T02:31:10;50.53;;;29.98;;
41897;SDS011;27576;53.366;-1.498;2024-03-08T02:33:35;50.10;;;31.05;;
41897;SDS011;27576;53.366;-1.498;2024-03-08T02:36:01;52.80;;;31.90;;
41897;SDS011;27576;53.366;-1.498;2024-03-08T02:38:26;51.47;;;31.60;;
41897;SDS011;27576;53.366;-1.498;2024-03-08T02:40:53;54.33;;;32.25;;
41897;SDS011;27576;53.366;-1.498;2024-03-08T02:43:19;48.47;;;29.42;;
41897;SDS011;27576;53.366;-1.498;2024-03-08T02:45:47;47.72;;;28.90;;
41897;SDS011;27576;53.366;-1.498;2024-03-08T02:48:13;57.80;;;31.75;;
41897;SDS011;27576;53.366;-1.498;2024-03-08T02:50:39;53.13;;;31.15;;
41897;SDS011;27576;53.366;-1.498;2024-03-08T02:53:05;51.75;;;30.65;;
41897;SDS011;27576;53.366;-1.498;2024-03-08T02:55:31;50.95;;;30.83;;
41897;SDS011;27576;53.366;-1.498;2024-03-08T02:57:58;51.75;;;30.67;;
41897;SDS011;27576;53.366;-1.498;2024-03-08T03:00:24;43.78;;;28.35;;
41897;SDS011;27576;53.366;-1.498;2024-03-08T03:02:51;49.95;;;28.17;;
41897;SDS011;27576;53.366;-1.498;2024-03-08T03:05:19;50.47;;;30.13;;
41897;SDS011;27576;53.366;-1.498;2024-03-08T03:07:45;53.38;;;31.35;;
41897;SDS011;27576;53.366;-1.498;2024-03-08T03:10:10;54.50;;;31.52;;
41897;SDS011;27576;53.366;-1.498;2024-03-08T03:12:37;51.95;;;29.45;;
41897;SDS011;27576;53.366;-1.498;2024-03-08T03:15:03;46.50;;;27.85;;
41897;SDS011;27576;53.366;-1.498;2024-03-08T03:17:29;56.33;;;30.88;;
41897;SDS011;27576;53.366;-1.498;2024-03-08T03:19:55;53.97;;;31.30;;
41897;SDS011;27576;53.366;-1.498;2024-03-08T03:22:20;53.25;;;31.05;;
41897;SDS011;27576;53.366;-1.498;2024-03-08T03:24:46;59.33;;;33.03;;
41897;SDS011;27576;53.366;-1.498;2024-03-08T03:27:12;51.45;;;30.13;;
41897;SDS011;27576;53.366;-1.498;2024-03-08T03:29:39;53.58;;;31.90;;
41897;SDS011;27576;53.366;-1.498;2024-03-08T03:32:07;57.05;;;32.17;;
41897;SDS011;27576;53.366;-1.498;2024-03-08T03:34:33;56.05;;;30.90;;
41897;SDS011;27576;53.366;-1.498;2024-03-08T03:37:01;53.35;;;30.25;;
41897;SDS011;27576;53.366;-1.498;2024-03-08T03:39:28;52.30;;;31.15;;
41897;SDS011;27576;53.366;-1.498;2024-03-08T03:41:56;50.15;;;30.02;;
41897;SDS011;27576;53.366;-1.498;2024-03-08T03:44:22;60.72;;;34.85;;
41897;SDS011;27576;53.366;-1.498;2024-03-08T03:46:48;54.08;;;30.75;;
41897;SDS011;27576;53.366;-1.498;2024-03-08T03:49:15;53.55;;;31.55;;
41897;SDS011;27576;53.366;-1.498;2024-03-08T03:51:41;56.67;;;31.92;;
41897;SDS011;27576;53.366;-1.498;2024-03-08T03:54:07;63.85;;;34.15;;
41897;SDS011;27576;53.366;-1.498;2024-03-08T03:56:32;58.28;;;34.80;;
41897;SDS011;27576;53.366;-1.498;2024-03-08T03:58:58;67.70;;;35.92;;
41897;SDS011;27576;53.366;-1.498;2024-03-08T04:01:23;60.25;;;36.33;;
41897;SDS011;27576;53.366;-1.498;2024-03-08T04:03:49;60.05;;;35.00;;
41897;SDS011;27576;53.366;-1.498;2024-03-08T04:06:14;65.00;;;36.45;;
41897;SDS011;27576;53.366;-1.498;2024-03-08T04:08:40;62.40;;;33.22;;
41897;SDS011;27576;53.366;-1.498;2024-03-08T04:11:06;61.65;;;34.00;;
41897;SDS011;27576;53.366;-1.498;2024-03-08T04:13:33;60.78;;;34.17;;
41897;SDS011;27576;53.366;-1.498;2024-03-08T04:15:59;65.13;;;34.05;;
41897;SDS011;27576;53.366;-1.498;2024-03-08T04:18:24;59.78;;;34.30;;
41897;SDS011;27576;53.366;-1.498;2024-03-08T04:20:50;62.10;;;34.45;;
41897;SDS011;27576;53.366;-1.498;2024-03-08T04:23:16;65.03;;;36.92;;
41897;SDS011;27576;53.366;-1.498;2024-03-08T04:25:42;71.13;;;36.72;;
41897;SDS011;27576;53.366;-1.498;2024-03-08T04:28:08;68.68;;;35.97;;
41897;SDS011;27576;53.366;-1.498;2024-03-08T04:30:37;67.30;;;35.92;;
41897;SDS011;27576;53.366;-1.498;2024-03-08T04:33:04;53.58;;;34.58;;
41897;SDS011;27576;53.366;-1.498;2024-03-08T04:35:30;57.88;;;34.75;;
41897;SDS011;27576;53.366;-1.498;2024-03-08T04:37:55;56.58;;;32.90;;
41897;SDS011;27576;53.366;-1.498;2024-03-08T04:40:22;55.58;;;32.22;;
41897;SDS011;27576;53.366;-1.498;2024-03-08T04:42:48;62.38;;;34.63;;
41897;SDS011;27576;53.366;-1.498;2024-03-08T04:45:16;75.68;;;37.25;;
41897;SDS011;27576;53.366;-1.498;2024-03-08T04:47:41;63.85;;;36.80;;
41897;SDS011;27576;53.366;-1.498;2024-03-08T04:50:07;60.60;;;33.58;;
41897;SDS011;27576;53.366;-1.498;2024-03-08T04:52:34;67.00;;;37.10;;
41897;SDS011;27576;53.366;-1.498;2024-03-08T04:54:59;67.65;;;36.92;;
41897;SDS011;27576;53.366;-1.498;2024-03-08T04:57:24;62.65;;;36.88;;
41897;SDS011;27576;53.366;-1.498;2024-03-08T04:59:50;58.63;;;34.45;;
41897;SDS011;27576;53.366;-1.498;2024-03-08T05:02:16;59.58;;;35.15;;
41897;SDS011;27576;53.366;-1.498;2024-03-08T05:04:42;67.18;;;37.20;;
41897;SDS011;27576;53.366;-1.498;2024-03-08T05:07:08;54.50;;;33.03;;
41897;SDS011;27576;53.366;-1.498;2024-03-08T05:09:33;59.28;;;34.42;;
41897;SDS011;27576;53.366;-1.498;2024-03-08T05:11:59;69.95;;;38.92;;
41897;SDS011;27576;53.366;-1.498;2024-03-08T05:14:24;67.38;;;38.63;;
41897;SDS011;27576;53.366;-1.498;2024-03-08T05:16:50;59.17;;;36.22;;
41897;SDS011;27576;53.366;-1.498;2024-03-08T05:19:19;63.67;;;35.63;;
41897;SDS011;27576;53.366;-1.498;2024-03-08T05:21:46;69.28;;;38.13;;
41897;SDS011;27576;53.366;-1.498;2024-03-08T05:24:12;67.05;;;38.70;;
41897;SDS011;27576;53.366;-1.498;2024-03-08T05:26:39;79.65;;;41.58;;
41897;SDS011;27576;53.366;-1.498;2024-03-08T05:29:05;70.00;;;39.83;;
41897;SDS011;27576;53.366;-1.498;2024-03-08T05:31:36;75.80;;;39.55;;
41897;SDS011;27576;53.366;-1.498;2024-03-08T05:34:11;70.32;;;41.30;;
41897;SDS011;27576;53.366;-1.498;2024-03-08T05:36:39;67.97;;;39.70;;
41897;SDS011;27576;53.366;-1.498;2024-03-08T05:39:05;80.85;;;42.10;;
41897;SDS011;27576;53.366;-1.498;2024-03-08T05:41:31;70.95;;;40.97;;
41897;SDS011;27576;53.366;-1.498;2024-03-08T05:43:57;63.08;;;38.40;;
41897;SDS011;27576;53.366;-1.498;2024-03-08T05:46:22;64.97;;;39.97;;
41897;SDS011;27576;53.366;-1.498;2024-03-08T05:48:48;64.00;;;35.33;;
41897;SDS011;27576;53.366;-1.498;2024-03-08T05:51:13;69.63;;;39.10;;
41897;SDS011;27576;53.366;-1.498;2024-03-08T05:53:38;70.93;;;39.13;;
41897;SDS011;27576;53.366;-1.498;2024-03-08T05:56:04;74.22;;;41.00;;
41897;SDS011;27576;53.366;-1.498;2024-03-08T05:58:30;74.97;;;41.50;;
41897;SDS011;27576;53.366;-1.498;2024-03-08T06:00:56;73.05;;;40.03;;
41897;SDS011;27576;53.366;-1.498;2024-03-08T06:03:22;66.90;;;39.15;;
41897;SDS011;27576;53.366;-1.498;2024-03-08T06:05:50;76.35;;;41.50;;
41897;SDS011;27576;53.366;-1.498;2024-03-08T06:08:15;74.45;;;40.85;;
41897;SDS011;27576;53.366;-1.498;2024-03-08T06:10:41;70.85;;;39.67;;
41897;SDS011;27576;53.366;-1.498;2024-03-08T06:13:06;65.57;;;38.80;;
41897;SDS011;27576;53.366;-1.498;2024-03-08T06:15:32;72.32;;;41.65;;
41897;SDS011;27576;53.366;-1.498;2024-03-08T06:17:57;74.60;;;41.75;;
41897;SDS011;27576;53.366;-1.498;2024-03-08T06:20:23;72.28;;;42.80;;
41897;SDS011;27576;53.366;-1.498;2024-03-08T06:22:51;70.13;;;41.28;;
41897;SDS011;27576;53.366;-1.498;2024-03-08T06:25:17;67.15;;;40.10;;
41897;SDS011;27576;53.366;-1.498;2024-03-08T06:27:43;66.05;;;38.05;;
41897;SDS011;27576;53.366;-1.498;2024-03-08T06:30:09;78.93;;;42.75;;
41897;SDS011;27576;53.366;-1.498;2024-03-08T06:32:35;71.75;;;41.05;;
41897;SDS011;27576;53.366;-1.498;2024-03-08T06:35:02;75.68;;;42.28;;
41897;SDS011;27576;53.366;-1.498;2024-03-08T06:37:31;77.63;;;42.35;;
41897;SDS011;27576;53.366;-1.498;2024-03-08T06:39:57;75.55;;;43.63;;
41897;SDS011;27576;53.366;-1.498;2024-03-08T06:42:22;72.57;;;42.67;;
41897;SDS011;27576;53.366;-1.498;2024-03-08T06:44:48;82.95;;;41.78;;
41897;SDS011;27576;53.366;-1.498;2024-03-08T06:47:16;80.43;;;42.35;;
41897;SDS011;27576;53.366;-1.498;2024-03-08T06:49:42;66.57;;;39.90;;
41897;SDS011;27576;53.366;-1.498;2024-03-08T06:52:08;70.47;;;40.63;;
41897;SDS011;27576;53.366;-1.498;2024-03-08T06:54:34;73.43;;;41.80;;
41897;SDS011;27576;53.366;-1.498;2024-03-08T06:57:03;75.25;;;43.05;;
41897;SDS011;27576;53.366;-1.498;2024-03-08T06:59:30;81.22;;;43.95;;
41897;SDS011;27576;53.366;-1.498;2024-03-08T07:02:00;66.75;;;41.25;;
41897;SDS011;27576;53.366;-1.498;2024-03-08T07:04:27;71.78;;;40.50;;
41897;SDS011;27576;53.366;-1.498;2024-03-08T07:06:55;71.40;;;42.65;;
41897;SDS011;27576;53.366;-1.498;2024-03-08T07:09:22;71.13;;;41.78;;
41897;SDS011;27576;53.366;-1.498;2024-03-08T07:11:48;67.55;;;39.70;;
41897;SDS011;27576;53.366;-1.498;2024-03-08T07:14:19;77.55;;;43.65;;
41897;SDS011;27576;53.366;-1.498;2024-03-08T07:16:48;77.28;;;46.28;;
41897;SDS011;27576;53.366;-1.498;2024-03-08T07:19:14;77.07;;;44.63;;
41897;SDS011;27576;53.366;-1.498;2024-03-08T07:21:40;84.40;;;46.05;;
41897;SDS011;27576;53.366;-1.498;2024-03-08T07:24:06;74.72;;;41.90;;
41897;SDS011;27576;53.366;-1.498;2024-03-08T07:26:52;88.32;;;45.58;;
41897;SDS011;27576;53.366;-1.498;2024-03-08T07:29:19;82.63;;;46.25;;
41897;SDS011;27576;53.366;-1.498;2024-03-08T07:31:44;76.53;;;44.03;;
41897;SDS011;27576;53.366;-1.498;2024-03-08T07:34:16;65.22;;;40.30;;
41897;SDS011;27576;53.366;-1.498;2024-03-08T07:36:41;69.20;;;42.88;;
41897;SDS011;27576;53.366;-1.498;2024-03-08T07:39:07;82.35;;;46.10;;
41897;SDS011;27576;53.366;-1.498;2024-03-08T07:41:37;81.90;;;43.70;;
41897;SDS011;27576;53.366;-1.498;2024-03-08T07:44:05;80.75;;;45.95;;
41897;SDS011;27576;53.366;-1.498;2024-03-08T07:46:31;76.63;;;46.55;;
41897;SDS011;27576;53.366;-1.498;2024-03-08T07:48:56;72.00;;;44.40;;
41897;SDS011;27576;53.366;-1.498;2024-03-08T07:51:21;80.28;;;45.22;;
41897;SDS011;27576;53.366;-1.498;2024-03-08T07:53:47;83.82;;;46.95;;
41897;SDS011;27576;53.366;-1.498;2024-03-08T07:56:12;81.38;;;45.17;;
41897;SDS011;27576;53.366;-1.498;2024-03-08T07:58:39;78.22;;;45.80;;
41897;SDS011;27576;53.366;-1.498;2024-03-08T08:01:06;78.60;;;45.45;;
41897;SDS011;27576;53.366;-1.498;2024-03-08T08:03:31;75.95;;;43.40;;
41897;SDS011;27576;53.366;-1.498;2024-03-08T08:05:57;68.93;;;39.78;;
41897;SDS011;27576;53.366;-1.498;2024-03-08T08:08:22;76.82;;;44.42;;
41897;SDS011;27576;53.366;-1.498;2024-03-08T08:10:47;78.47;;;44.17;;
41897;SDS011;27576;53.366;-1.498;2024-03-08T08:13:13;79.07;;;44.05;;
41897;SDS011;27576;53.366;-1.498;2024-03-08T08:15:38;73.75;;;44.38;;
41897;SDS011;27576;53.366;-1.498;2024-03-08T08:18:04;68.78;;;41.85;;
41897;SDS011;27576;53.366;-1.498;2024-03-08T08:20:30;61.53;;;38.38;;
41897;SDS011;27576;53.366;-1.498;2024-03-08T08:22:56;72.75;;;42.95;;
41897;SDS011;27576;53.366;-1.498;2024-03-08T08:25:22;75.10;;;43.72;;
41897;SDS011;27576;53.366;-1.498;2024-03-08T08:27:49;67.60;;;40.03;;
41897;SDS011;27576;53.366;-1.498;2024-03-08T08:30:15;75.95;;;44.13;;
41897;SDS011;27576;53.366;-1.498;2024-03-08T08:32:40;78.78;;;45.88;;
41897;SDS011;27576;53.366;-1.498;2024-03-08T08:35:07;70.50;;;42.00;;
41897;SDS011;27576;53.366;-1.498;2024-03-08T08:37:34;69.65;;;41.30;;
41897;SDS011;27576;53.366;-1.498;2024-03-08T08:40:03;70.72;;;42.63;;
41897;SDS011;27576;53.366;-1.498;2024-03-08T08:42:33;71.38;;;42.00;;
41897;SDS011;27576;53.366;-1.498;2024-03-08T08:44:59;76.20;;;43.55;;
41897;SDS011;27576;53.366;-1.498;2024-03-08T08:47:24;72.88;;;41.65;;
41897;SDS011;27576;53.366;-1.498;2024-03-08T08:49:50;65.60;;;40.80;;
41897;SDS011;27576;53.366;-1.498;2024-03-08T08:52:15;62.67;;;38.90;;
41897;SDS011;27576;53.366;-1.498;2024-03-08T08:54:41;63.53;;;38.45;;
41897;SDS011;27576;53.366;-1.498;2024-03-08T08:57:07;65.75;;;39.80;;
41897;SDS011;27576;53.366;-1.498;2024-03-08T08:59:33;65.82;;;39.90;;
41897;SDS011;27576;53.366;-1.498;2024-03-08T09:02:01;67.03;;;38.80;;
41897;SDS011;27576;53.366;-1.498;2024-03-08T09:04:29;61.65;;;38.97;;
41897;SDS011;27576;53.366;-1.498;2024-03-08T09:06:56;64.50;;;38.95;;
41897;SDS011;27576;53.366;-1.498;2024-03-08T09:09:22;68.05;;;39.67;;
41897;SDS011;27576;53.366;-1.498;2024-03-08T09:11:47;63.55;;;37.05;;
41897;SDS011;27576;53.366;-1.498;2024-03-08T09:14:14;60.15;;;36.28;;
41897;SDS011;27576;53.366;-1.498;2024-03-08T09:16:39;62.67;;;37.67;;
41897;SDS011;27576;53.366;-1.498;2024-03-08T09:19:05;61.83;;;37.97;;
41897;SDS011;27576;53.366;-1.498;2024-03-08T09:21:31;61.28;;;36.20;;
41897;SDS011;27576;53.366;-1.498;2024-03-08T09:23:57;58.42;;;35.42;;
41897;SDS011;27576;53.366;-1.498;2024-03-08T09:26:23;53.75;;;34.58;;
41897;SDS011;27576;53.366;-1.498;2024-03-08T09:28:49;49.70;;;32.78;;
41897;SDS011;27576;53.366;-1.498;2024-03-08T09:31:14;56.78;;;34.75;;
41897;SDS011;27576;53.366;-1.498;2024-03-08T09:33:40;50.28;;;32.38;;
41897;SDS011;27576;53.366;-1.498;2024-03-08T09:36:07;52.35;;;33.70;;
41897;SDS011;27576;53.366;-1.498;2024-03-08T09:38:33;69.88;;;35.67;;
41897;SDS011;27576;53.366;-1.498;2024-03-08T09:41:01;52.40;;;32.75;;
41897;SDS011;27576;53.366;-1.498;2024-03-08T09:43:29;58.88;;;33.25;;
41897;SDS011;27576;53.366;-1.498;2024-03-08T09:45:54;53.85;;;33.38;;
41897;SDS011;27576;53.366;-1.498;2024-03-08T09:48:20;58.17;;;34.22;;
41897;SDS011;27576;53.366;-1.498;2024-03-08T09:50:47;53.30;;;33.30;;
41897;SDS011;27576;53.366;-1.498;2024-03-08T09:53:13;47.08;;;31.33;;
41897;SDS011;27576;53.366;-1.498;2024-03-08T09:55:39;52.70;;;31.85;;
41897;SDS011;27576;53.366;-1.498;2024-03-08T09:58:07;55.40;;;33.47;;
41897;SDS011;27576;53.366;-1.498;2024-03-08T10:00:56;48.10;;;30.52;;
41897;SDS011;27576;53.366;-1.498;2024-03-08T10:03:22;50.10;;;32.25;;
41897;SDS011;27576;53.366;-1.498;2024-03-08T10:05:48;51.95;;;31.17;;
41897;SDS011;27576;53.366;-1.498;2024-03-08T10:08:14;46.20;;;30.40;;
41897;SDS011;27576;53.366;-1.498;2024-03-08T10:10:39;54.88;;;32.28;;
41897;SDS011;27576;53.366;-1.498;2024-03-08T10:13:06;47.70;;;32.03;;
41897;SDS011;27576;53.366;-1.498;2024-03-08T10:15:32;52.92;;;33.15;;
41897;SDS011;27576;53.366;-1.498;2024-03-08T10:18:00;49.88;;;31.65;;
41897;SDS011;27576;53.366;-1.498;2024-03-08T10:20:30;51.42;;;31.63;;
41897;SDS011;27576;53.366;-1.498;2024-03-08T10:22:58;51.72;;;31.17;;
41897;SDS011;27576;53.366;-1.498;2024-03-08T10:25:30;49.72;;;31.33;;
41897;SDS011;27576;53.366;-1.498;2024-03-08T10:27:58;53.03;;;32.08;;
41897;SDS011;27576;53.366;-1.498;2024-03-08T10:30:23;54.80;;;33.30;;
41897;SDS011;27576;53.366;-1.498;2024-03-08T10:32:49;48.78;;;31.85;;
41897;SDS011;27576;53.366;-1.498;2024-03-08T10:35:15;49.30;;;30.92;;
41897;SDS011;27576;53.366;-1.498;2024-03-08T10:37:46;45.35;;;30.00;;
41897;SDS011;27576;53.366;-1.498;2024-03-08T10:40:16;47.88;;;30.70;;
41897;SDS011;27576;53.366;-1.498;2024-03-08T10:45:23;47.38;;;30.73;;
41897;SDS011;27576;53.366;-1.498;2024-03-08T10:48:40;55.42;;;31.95;;
41897;SDS011;27576;53.366;-1.498;2024-03-08T10:51:04;48.00;;;29.80;;
41897;SDS011;27576;53.366;-1.498;2024-03-08T10:53:32;48.47;;;30.20;;
41897;SDS011;27576;53.366;-1.498;2024-03-08T10:55:59;43.15;;;27.73;;
41897;SDS011;27576;53.366;-1.498;2024-03-08T10:58:24;49.42;;;32.47;;
41897;SDS011;27576;53.366;-1.498;2024-03-08T11:00:55;50.65;;;30.05;;
41897;SDS011;27576;53.366;-1.498;2024-03-08T11:06:13;45.95;;;29.95;;
41897;SDS011;27576;53.366;-1.498;2024-03-08T11:08:41;46.20;;;28.95;;
41897;SDS011;27576;53.366;-1.498;2024-03-08T11:11:11;46.63;;;30.55;;
41897;SDS011;27576;53.366;-1.498;2024-03-08T11:13:52;45.10;;;29.13;;
41897;SDS011;27576;53.366;-1.498;2024-03-08T11:18:49;44.17;;;29.05;;
41897;SDS011;27576;53.366;-1.498;2024-03-08T11:21:15;40.20;;;27.02;;
41897;SDS011;27576;53.366;-1.498;2024-03-08T11:23:42;45.63;;;28.55;;
41897;SDS011;27576;53.366;-1.498;2024-03-08T11:26:18;43.05;;;29.67;;
41897;SDS011;27576;53.366;-1.498;2024-03-08T11:28:45;44.45;;;28.98;;
41897;SDS011;27576;53.366;-1.498;2024-03-08T11:33:38;50.42;;;31.08;;
41897;SDS011;27576;53.366;-1.498;2024-03-08T11:36:24;44.25;;;28.27;;
41897;SDS011;27576;53.366;-1.498;2024-03-08T11:38:50;42.03;;;27.98;;
41897;SDS011;27576;53.366;-1.498;2024-03-08T11:41:20;46.45;;;29.50;;
41897;SDS011;27576;53.366;-1.498;2024-03-08T11:43:48;44.38;;;29.67;;
41897;SDS011;27576;53.366;-1.498;2024-03-08T11:46:15;46.05;;;30.20;;
41897;SDS011;27576;53.366;-1.498;2024-03-08T11:48:42;45.45;;;30.52;;
41897;SDS011;27576;53.366;-1.498;2024-03-08T11:51:09;48.83;;;30.70;;
41897;SDS011;27576;53.366;-1.498;2024-03-08T11:53:37;48.92;;;29.15;;
41897;SDS011;27576;53.366;-1.498;2024-03-08T11:56:13;45.67;;;30.45;;
41897;SDS011;27576;53.366;-1.498;2024-03-08T11:58:39;47.35;;;30.05;;
41897;SDS011;27576;53.366;-1.498;2024-03-08T12:01:06;47.03;;;29.67;;
41897;SDS011;27576;53.366;-1.498;2024-03-08T12:03:34;43.67;;;30.27;;
41897;SDS011;27576;53.366;-1.498;2024-03-08T12:06:00;48.47;;;30.17;;
41897;SDS011;27576;53.366;-1.498;2024-03-08T12:08:27;45.78;;;28.70;;
41897;SDS011;27576;53.366;-1.498;2024-03-08T12:10:56;45.67;;;30.23;;
41897;SDS011;27576;53.366;-1.498;2024-03-08T12:13:28;42.97;;;29.52;;
41897;SDS011;27576;53.366;-1.498;2024-03-08T12:15:57;42.30;;;28.67;;
41897;SDS011;27576;53.366;-1.498;2024-03-08T12:18:24;42.63;;;29.40;;
41897;SDS011;27576;53.366;-1.498;2024-03-08T12:20:51;38.67;;;27.67;;
41897;SDS011;27576;53.366;-1.498;2024-03-08T12:23:17;38.58;;;26.67;;
41897;SDS011;27576;53.366;-1.498;2024-03-08T12:25:42;38.22;;;26.88;;
41897;SDS011;27576;53.366;-1.498;2024-03-08T12:28:10;43.03;;;28.38;;
41897;SDS011;27576;53.366;-1.498;2024-03-08T12:30:51;42.55;;;27.77;;
41897;SDS011;27576;53.366;-1.498;2024-03-08T12:33:19;42.85;;;28.38;;
41897;SDS011;27576;53.366;-1.498;2024-03-08T12:35:54;44.08;;;27.67;;
41897;SDS011;27576;53.366;-1.498;2024-03-08T12:38:21;40.22;;;26.20;;
41897;SDS011;27576;53.366;-1.498;2024-03-08T12:40:50;37.95;;;25.50;;
41897;SDS011;27576;53.366;-1.498;2024-03-08T12:43:15;37.15;;;26.35;;
41897;SDS011;27576;53.366;-1.498;2024-03-08T12:45:41;43.50;;;26.63;;
41897;SDS011;27576;53.366;-1.498;2024-03-08T12:48:12;36.65;;;24.15;;
41897;SDS011;27576;53.366;-1.498;2024-03-08T12:50:40;37.58;;;26.77;;
41897;SDS011;27576;53.366;-1.498;2024-03-08T12:53:05;40.28;;;25.70;;
41897;SDS011;27576;53.366;-1.498;2024-03-08T12:55:31;36.00;;;23.95;;
41897;SDS011;27576;53.366;-1.498;2024-03-08T12:57:57;40.75;;;27.48;;
41897;SDS011;27576;53.366;-1.498;2024-03-08T13:00:24;44.38;;;27.98;;
41897;SDS011;27576;53.366;-1.498;2024-03-08T13:02:50;39.03;;;26.17;;
41897;SDS011;27576;53.366;-1.498;2024-03-08T13:05:16;35.88;;;26.95;;
41897;SDS011;27576;53.366;-1.498;2024-03-08T13:07:42;38.20;;;28.38;;
41897;SDS011;27576;53.366;-1.498;2024-03-08T13:10:12;40.55;;;27.10;;
41897;SDS011;27576;53.366;-1.498;2024-03-08T13:12:40;37.58;;;28.55;;
41897;SDS011;27576;53.366;-1.498;2024-03-08T13:15:08;37.80;;;27.48;;
41897;SDS011;27576;53.366;-1.498;2024-03-08T13:17:44;40.33;;;28.73;;
41897;SDS011;27576;53.366;-1.498;2024-03-08T13:20:11;34.85;;;24.92;;
41897;SDS011;27576;53.366;-1.498;2024-03-08T13:22:42;36.22;;;26.27;;
41897;SDS011;27576;53.366;-1.498;2024-03-08T13:25:07;40.67;;;27.55;;
41897;SDS011;27576;53.366;-1.498;2024-03-08T13:27:38;37.45;;;26.70;;
41897;SDS011;27576;53.366;-1.498;2024-03-08T13:30:07;45.22;;;29.40;;
41897;SDS011;27576;53.366;-1.498;2024-03-08T13:32:38;49.05;;;33.30;;
41897;SDS011;27576;53.366;-1.498;2024-03-08T13:35:04;42.42;;;30.73;;
41897;SDS011;27576;53.366;-1.498;2024-03-08T13:37:37;43.03;;;29.35;;
41897;SDS011;27576;53.366;-1.498;2024-03-08T13:40:04;38.80;;;28.17;;
41897;SDS011;27576;53.366;-1.498;2024-03-08T13:42:30;36.97;;;27.20;;
41897;SDS011;27576;53.366;-1.498;2024-03-08T13:44:56;36.42;;;26.05;;
41897;SDS011;27576;53.366;-1.498;2024-03-08T13:47:21;43.67;;;29.45;;
41897;SDS011;27576;53.366;-1.498;2024-03-08T13:49:46;39.42;;;28.02;;
41897;SDS011;27576;53.366;-1.498;2024-03-08T13:52:15;48.17;;;30.83;;
41897;SDS011;27576;53.366;-1.498;2024-03-08T13:54:41;38.40;;;28.00;;
41897;SDS011;27576;53.366;-1.498;2024-03-08T13:57:07;45.83;;;30.27;;
41897;SDS011;27576;53.366;-1.498;2024-03-08T13:59:33;45.20;;;30.15;;
41897;SDS011;27576;53.366;-1.498;2024-03-08T14:02:00;42.97;;;31.65;;
41897;SDS011;27576;53.366;-1.498;2024-03-08T14:04:27;40.38;;;28.55;;
41897;SDS011;27576;53.366;-1.498;2024-03-08T14:06:53;44.17;;;31.23;;
41897;SDS011;27576;53.366;-1.498;2024-03-08T14:09:24;43.95;;;29.67;;
41897;SDS011;27576;53.366;-1.498;2024-03-08T14:11:50;43.03;;;30.25;;
41897;SDS011;27576;53.366;-1.498;2024-03-08T14:14:19;43.90;;;30.60;;
41897;SDS011;27576;53.366;-1.498;2024-03-08T14:16:46;46.90;;;31.30;;